Time;durP1;ratioP1;P1;durP2;ratioP2;P2;SDS_P1;SDS_P2;PMS_P1;PMS_P2;Temp;Humidity;BMP_temperature;BMP_pressure;BME280_temperature;BME280_humidity;BME280_pressure;Samples;Min_cycle;Max_cycle;Signal;HPM_P1;HPM_P2
2023/01/05 08:11:53;;;;;;;0.40;0.40;;;11.60;99.90;;;;;;5027036;23;20059;-78
2023/01/05 08:14:20;;;;;;;1.10;0.30;;;11.60;99.90;;;;;;4924695;29;20044;-78
2023/01/05 08:16:46;;;;;;;0.40;0.40;;;11.60;99.90;;;;;;4918125;29;20501;-78
2023/01/05 08:19:13;;;;;;;0.80;0.30;;;11.70;99.90;;;;;;4927241;29;20466;-79
2023/01/05 08:21:40;;;;;;;0.88;0.40;;;11.70;99.90;;;;;;4932944;29;20513;-76
2023/01/05 08:24:07;;;;;;;0.68;0.60;;;11.70;99.90;;;;;;4925948;29;20047;-76
2023/01/05 08:26:33;;;;;;;2.38;0.75;;;11.70;99.90;;;;;;4927052;29;20067;-76
2023/01/05 08:29:00;;;;;;;3.13;0.65;;;11.70;99.90;;;;;;4931169;29;20059;-77
2023/01/05 08:31:29;;;;;;;0.95;0.50;;;11.70;99.90;;;;;;4929068;29;20055;-77
2023/01/05 08:33:58;;;;;;;1.75;0.47;;;11.70;99.90;;;;;;4926286;29;20402;-77
2023/01/05 08:36:25;;;;;;;0.57;0.50;;;11.80;99.90;;;;;;4922062;29;20055;-77
2023/01/05 08:38:53;;;;;;;1.40;0.75;;;11.80;99.90;;;;;;4928039;29;20055;-79
2023/01/05 08:41:21;;;;;;;1.42;0.60;;;11.80;99.90;;;;;;4924928;29;20056;-79
2023/01/05 08:43:54;;;;;;;0.60;0.40;;;11.80;99.90;;;;;;4924306;29;20052;-79
2023/01/05 08:46:22;;;;;;;1.65;0.80;;;11.80;99.90;;;;;;4927325;29;20048;-79
2023/01/05 08:48:51;;;;;;;0.60;0.60;;;11.80;99.90;;;;;;4929241;29;20420;-79
2023/01/05 08:51:18;;;;;;;1.15;0.50;;;11.90;99.90;;;;;;4934675;29;20047;-79
2023/01/05 08:53:45;;;;;;;1.05;0.40;;;11.90;99.90;;;;;;4925999;29;20056;-78
2023/01/05 08:56:12;;;;;;;1.95;0.70;;;11.90;99.90;;;;;;4926279;29;20052;-79
2023/01/05 08:58:40;;;;;;;1.85;0.60;;;11.90;99.90;;;;;;4936617;29;20528;-78
2023/01/05 09:01:14;;;;;;;0.63;0.60;;;11.90;99.90;;;;;;4925589;29;20056;-78
2023/01/05 09:03:41;;;;;;;0.90;0.70;;;11.90;99.90;;;;;;4921467;29;20052;-79
2023/01/05 09:06:10;;;;;;;0.70;0.60;;;12.00;99.90;;;;;;4935980;29;20043;-79
2023/01/05 09:08:38;;;;;;;2.00;0.88;;;12.00;99.90;;;;;;4939345;29;20076;-78
2023/01/05 09:11:11;;;;;;;1.60;0.70;;;12.00;99.90;;;;;;4923524;29;20528;-78
2023/01/05 09:13:38;;;;;;;2.00;1.00;;;12.10;99.90;;;;;;4924601;29;20432;-79
2023/01/05 09:16:13;;;;;;;2.42;1.00;;;12.10;99.90;;;;;;4929372;29;20055;-79
2023/01/05 09:18:40;;;;;;;1.52;0.85;;;12.10;99.90;;;;;;4928463;29;20067;-78
2023/01/05 09:21:08;;;;;;;9.70;1.75;;;12.20;99.90;;;;;;4934045;29;20616;-79
2023/01/05 09:23:35;;;;;;;1.10;0.68;;;12.30;99.90;;;;;;4926294;29;20166;-78
2023/01/05 09:26:04;;;;;;;1.10;0.50;;;12.30;99.90;;;;;;4922651;29;20048;-78
2023/01/05 09:28:31;;;;;;;1.65;0.52;;;12.40;99.90;;;;;;4924087;29;20051;-78
2023/01/05 09:30:57;;;;;;;1.23;0.52;;;12.40;99.90;;;;;;4927849;29;20056;-79
2023/01/05 09:33:24;;;;;;;1.90;0.50;;;12.40;99.90;;;;;;4927811;29;20056;-79
2023/01/05 09:35:55;;;;;;;2.10;0.75;;;12.40;99.90;;;;;;4933348;29;20066;-79
2023/01/05 09:38:22;;;;;;;0.80;0.50;;;12.40;99.90;;;;;;4931177;29;20056;-78
2023/01/05 09:40:52;;;;;;;1.50;0.98;;;12.50;99.90;;;;;;4932571;29;20070;-79
2023/01/05 09:43:26;;;;;;;4.68;2.33;;;12.50;99.90;;;;;;4931665;29;20497;-78
2023/01/05 09:45:54;;;;;;;6.20;2.78;;;12.50;99.90;;;;;;4929480;29;20055;-78
2023/01/05 09:48:23;;;;;;;2.17;0.93;;;12.50;99.90;;;;;;4928521;29;20104;-79
2023/01/05 09:50:51;;;;;;;1.70;0.70;;;12.50;99.90;;;;;;4927020;29;20048;-79
2023/01/05 09:53:24;;;;;;;5.13;0.95;;;12.50;99.90;;;;;;4930098;29;20044;-79
2023/01/05 09:55:52;;;;;;;1.50;0.80;;;12.40;99.90;;;;;;4929493;29;20052;-79
2023/01/05 09:58:24;;;;;;;3.92;0.70;;;12.40;99.90;;;;;;4925587;29;20063;-79
2023/01/05 10:01:09;;;;;;;3.58;0.85;;;12.40;99.90;;;;;;4930612;29;20063;-77
2023/01/05 10:03:41;;;;;;;2.88;1.25;;;12.50;99.90;;;;;;4944984;28;20048;-79
2023/01/05 10:06:33;;;;;;;3.70;1.00;;;12.60;99.90;;;;;;4931917;29;20047;-79
2023/01/05 10:09:02;;;;;;;1.85;0.80;;;12.60;99.90;;;;;;4930481;29;20062;-78
2023/01/05 10:14:40;;;;;;;2.83;0.80;;;12.70;99.90;;;;;;4934061;29;20051;-80
2023/01/05 10:17:15;;;;;;;2.00;0.82;;;12.70;99.90;;;;;;4929357;29;21663;-79
2023/01/05 10:20:02;;;;;;;0.98;0.50;;;12.70;99.90;;;;;;4922936;29;20128;-79
2023/01/05 10:22:55;;;;;;;1.00;0.60;;;12.70;99.90;;;;;;4922666;29;20052;-80
2023/01/05 10:25:32;;;;;;;0.40;0.40;;;12.70;99.90;;;;;;4930936;29;20051;-79
2023/01/05 10:28:06;;;;;;;2.75;0.55;;;12.70;99.90;;;;;;4932594;29;20051;-79
2023/01/05 10:31:00;;;;;;;0.95;0.70;;;12.70;99.90;;;;;;4932257;29;20047;-79
2023/01/05 10:33:48;;;;;;;0.98;0.63;;;12.70;99.90;;;;;;4936162;29;20044;-79
2023/01/05 10:36:49;;;;;;;0.77;0.50;;;12.70;99.90;;;;;;4935405;29;20080;-79
2023/01/05 10:39:47;;;;;;;2.35;0.70;;;12.80;99.90;;;;;;4933470;29;20117;-79
2023/01/05 10:42:44;;;;;;;0.55;0.40;;;12.80;99.90;;;;;;4932592;29;20581;-80
2023/01/05 10:45:14;;;;;;;0.63;0.35;;;12.90;99.90;;;;;;4932551;29;20044;-79
2023/01/05 10:47:41;;;;;;;1.30;0.45;;;12.90;99.90;;;;;;4928972;29;20127;-80
2023/01/05 10:50:44;;;;;;;0.70;0.52;;;12.90;99.90;;;;;;4935704;29;20101;-79
2023/01/05 10:53:17;;;;;;;1.00;0.50;;;13.00;99.90;;;;;;4924806;29;20051;-80
2023/01/05 10:56:03;;;;;;;0.63;0.63;;;13.00;99.90;;;;;;4934583;29;20070;-80
2023/01/05 10:58:32;;;;;;;0.60;0.50;;;12.90;99.90;;;;;;4934925;29;20058;-80
2023/01/05 11:01:23;;;;;;;2.53;0.60;;;12.90;99.90;;;;;;4929757;28;20063;-79
2023/01/05 11:04:00;;;;;;;0.30;0.30;;;12.90;99.90;;;;;;4928532;29;20059;-78
2023/01/05 11:06:48;;;;;;;0.40;0.40;;;12.90;99.90;;;;;;4928160;29;20091;-79
2023/01/05 11:09:25;;;;;;;0.50;0.40;;;12.80;99.90;;;;;;4927200;29;20446;-78
2023/01/05 11:11:58;;;;;;;0.52;0.40;;;12.90;99.90;;;;;;4932519;29;20067;-78
2023/01/05 11:14:28;;;;;;;0.98;0.30;;;12.90;99.90;;;;;;4926843;29;20051;-78
2023/01/05 11:17:01;;;;;;;0.50;0.45;;;12.90;99.90;;;;;;4927831;29;20048;-78
2023/01/05 11:19:39;;;;;;;1.30;0.60;;;12.90;99.90;;;;;;4922197;29;20056;-78
2023/01/05 11:22:27;;;;;;;0.73;0.50;;;12.90;99.90;;;;;;4924735;29;20060;-78
2023/01/05 11:25:11;;;;;;;0.75;0.30;;;12.90;99.90;;;;;;4926602;29;20063;-78
2023/01/05 11:27:38;;;;;;;0.45;0.30;;;12.90;99.90;;;;;;4926369;29;20144;-78
2023/01/05 11:30:13;;;;;;;0.30;0.30;;;12.90;99.90;;;;;;4917710;29;20059;-77
2023/01/05 11:32:44;;;;;;;0.32;0.30;;;12.90;99.90;;;;;;4920176;29;20422;-77
2023/01/05 11:35:30;;;;;;;0.32;0.32;;;13.00;99.90;;;;;;4934689;29;20079;-78
2023/01/05 11:37:57;;;;;;;1.13;0.40;;;13.00;99.90;;;;;;4936682;29;20489;-78
2023/01/05 11:40:29;;;;;;;0.30;0.30;;;13.00;99.90;;;;;;4936307;29;20087;-78
2023/01/05 11:42:57;;;;;;;0.32;0.30;;;13.10;99.90;;;;;;4921547;29;20070;-77
2023/01/05 11:45:28;;;;;;;0.30;0.30;;;13.10;99.90;;;;;;4924307;29;20058;-77
2023/01/05 11:48:00;;;;;;;1.02;0.55;;;13.10;99.90;;;;;;4930117;29;20135;-77
2023/01/05 11:50:37;;;;;;;0.80;0.30;;;13.10;99.90;;;;;;4925231;29;20548;-78
2023/01/05 11:53:04;;;;;;;0.40;0.30;;;13.10;99.90;;;;;;4926722;29;20048;-77
2023/01/05 11:55:39;;;;;;;0.40;0.40;;;13.10;99.90;;;;;;4926674;29;20055;-78
2023/01/05 11:58:24;;;;;;;0.52;0.43;;;13.10;99.90;;;;;;4934529;29;20059;-78
2023/01/05 12:01:28;;;;;;;1.02;0.30;;;13.10;99.90;;;;;;4934618;29;20070;-78
2023/01/05 12:04:26;;;;;;;0.50;0.40;;;13.10;99.90;;;;;;4937049;29;20650;-79
2023/01/05 12:07:25;;;;;;;0.22;0.22;;;13.10;99.90;;;;;;4911838;29;20056;-78
2023/01/05 12:10:03;;;;;;;2.22;0.40;;;13.10;99.90;;;;;;4923427;29;20056;-79
2023/01/05 12:12:58;;;;;;;1.60;0.45;;;13.10;99.90;;;;;;4930697;29;20421;-78
2023/01/05 12:15:49;;;;;;;1.88;0.32;;;13.20;99.90;;;;;;4914963;29;20086;-79
2023/01/05 12:18:21;;;;;;;;;;;13.20;99.90;;;;;;4927840;29;20091;-79
2023/01/05 12:21:14;;;;;;;0.82;0.35;;;13.20;99.90;;;;;;4925705;29;20341;-79
2023/01/05 12:24:04;;;;;;;1.83;0.55;;;13.30;99.90;;;;;;4923676;29;20048;-79
2023/01/05 12:27:02;;;;;;;0.43;0.30;;;13.30;99.90;;;;;;4903324;29;20051;-77
2023/01/05 12:29:56;;;;;;;0.85;0.57;;;13.30;99.90;;;;;;4937701;29;20564;-78
2023/01/05 12:33:01;;;;;;;0.38;0.35;;;13.40;99.90;;;;;;4944187;29;20080;-78
2023/01/05 12:36:10;;;;;;;0.50;0.47;;;13.40;99.90;;;;;;4936993;29;20048;-79
2023/01/05 12:39:00;;;;;;;0.70;0.40;;;13.40;99.90;;;;;;4931546;29;20051;-78
2023/01/05 12:41:30;;;;;;;2.25;0.52;;;13.40;99.90;;;;;;4929346;29;20051;-78
2023/01/05 12:44:16;;;;;;;1.15;0.73;;;13.40;99.90;;;;;;4934912;29;20051;-78
2023/01/05 12:46:49;;;;;;;0.65;0.57;;;13.30;99.90;;;;;;4931773;29;20090;-78
2023/01/05 12:49:22;;;;;;;2.45;0.70;;;13.30;99.90;;;;;;4923575;29;20052;-78
2023/01/05 12:52:16;;;;;;;0.60;0.52;;;13.20;99.90;;;;;;4920303;29;20048;-78
2023/01/05 12:54:57;;;;;;;0.35;0.35;;;13.20;99.90;;;;;;4928767;29;20044;-79
2023/01/05 12:57:37;;;;;;;0.85;0.30;;;13.20;99.90;;;;;;4936533;29;20135;-78
2023/01/05 13:00:18;;;;;;;0.80;0.50;;;13.20;99.90;;;;;;4922048;29;20071;-78
2023/01/05 13:02:54;;;;;;;3.53;1.77;;;13.20;99.90;;;;;;4930096;29;20049;-78
2023/01/05 13:05:42;;;;;;;1.67;1.08;;;13.20;99.90;;;;;;4932146;29;20052;-79
2023/01/05 13:08:22;;;;;;;0.40;0.40;;;13.20;99.90;;;;;;4928015;29;20054;-79
2023/01/05 13:10:59;;;;;;;0.68;0.60;;;13.20;99.90;;;;;;4918880;29;20052;-78
2023/01/05 13:13:33;;;;;;;1.23;0.93;;;13.20;99.90;;;;;;4920339;29;20059;-78
2023/01/05 13:16:07;;;;;;;0.82;0.60;;;13.20;99.90;;;;;;4936520;29;20502;-78
2023/01/05 13:18:38;;;;;;;2.10;1.15;;;13.10;99.90;;;;;;4921030;29;20052;-78
2023/01/05 13:21:05;;;;;;;0.68;0.50;;;13.10;99.90;;;;;;4933729;29;20067;-78
2023/01/05 13:23:44;;;;;;;1.40;1.10;;;13.10;99.90;;;;;;4942854;29;20058;-78
2023/01/05 13:26:15;;;;;;;3.40;0.77;;;13.10;99.90;;;;;;4946649;29;20052;-78
2023/01/05 13:28:46;;;;;;;0.93;0.82;;;13.10;99.90;;;;;;4936494;29;20052;-78
2023/01/05 13:31:44;;;;;;;1.83;0.77;;;13.10;99.90;;;;;;4929878;29;20121;-77
2023/01/05 13:34:27;;;;;;;1.23;0.70;;;13.10;99.90;;;;;;4931796;29;20127;-79
2023/01/05 13:37:12;;;;;;;0.57;0.40;;;13.10;99.90;;;;;;4933560;29;20056;-82
2023/01/05 13:40:06;;;;;;;0.85;0.50;;;13.10;99.90;;;;;;4930224;29;20055;-79
2023/01/05 13:42:51;;;;;;;1.88;1.20;;;13.20;99.90;;;;;;4938703;29;20058;-79
2023/01/05 13:45:55;;;;;;;1.02;0.93;;;13.20;99.90;;;;;;4932724;29;20075;-78
2023/01/05 13:48:33;;;;;;;0.75;0.52;;;13.20;99.90;;;;;;4933174;29;20058;-78
2023/01/05 13:51:36;;;;;;;1.92;0.50;;;13.20;99.90;;;;;;4934397;29;20493;-80
2023/01/05 13:54:08;;;;;;;0.50;0.50;;;13.20;99.90;;;;;;4930622;29;20051;-79
2023/01/05 13:56:39;;;;;;;0.95;0.60;;;13.20;99.90;;;;;;4937736;29;20081;-78
2023/01/05 13:59:26;;;;;;;0.52;0.40;;;13.20;99.90;;;;;;4934296;29;20528;-78
2023/01/05 14:02:25;;;;;;;2.55;1.08;;;13.20;99.90;;;;;;4936364;29;20054;-79
2023/01/05 14:04:52;;;;;;;1.65;0.60;;;13.20;99.90;;;;;;4932695;29;20067;-79
2023/01/05 14:07:19;;;;;;;0.82;0.50;;;13.20;99.90;;;;;;4930826;29;20423;-79
2023/01/05 14:09:50;;;;;;;2.25;0.40;;;13.20;99.90;;;;;;4930641;29;20048;-79
2023/01/05 14:12:20;;;;;;;0.90;0.40;;;13.20;99.90;;;;;;4928578;29;20057;-78
2023/01/05 14:15:24;;;;;;;0.28;0.28;;;13.20;99.90;;;;;;4930498;29;20625;-78
2023/01/05 14:18:12;;;;;;;0.45;0.45;;;13.20;99.90;;;;;;4930652;29;20521;-80
2023/01/05 14:20:45;;;;;;;3.53;2.58;;;13.20;99.90;;;;;;4934762;29;20044;-79
2023/01/05 14:23:24;;;;;;;2.05;0.70;;;13.20;99.90;;;;;;4933713;29;20062;-79
2023/01/05 14:25:56;;;;;;;1.00;0.65;;;13.20;99.90;;;;;;4932032;29;20055;-78
2023/01/05 14:28:34;;;;;;;1.02;0.93;;;13.20;99.90;;;;;;4934980;29;20058;-79
2023/01/05 14:31:12;;;;;;;0.38;0.38;;;13.10;99.90;;;;;;4927584;29;20052;-78
2023/01/05 14:33:56;;;;;;;0.80;0.50;;;13.20;99.90;;;;;;4930947;29;20051;-79
2023/01/05 14:36:43;;;;;;;0.82;0.75;;;13.20;99.90;;;;;;4928675;29;20052;-79
2023/01/05 14:39:18;;;;;;;1.40;0.80;;;13.20;99.90;;;;;;4938707;29;20051;-78
2023/01/05 14:41:59;;;;;;;1.13;0.70;;;13.10;99.90;;;;;;4924234;29;20052;-78
2023/01/05 14:45:05;;;;;;;2.55;0.80;;;13.10;99.90;;;;;;4933238;29;20051;-79
2023/01/05 14:47:42;;;;;;;1.35;0.63;;;13.10;99.90;;;;;;4930021;29;20123;-79
2023/01/05 14:50:33;;;;;;;0.80;0.68;;;13.10;99.90;;;;;;4935139;29;20048;-77
2023/01/05 14:53:01;;;;;;;0.90;0.43;;;13.10;99.90;;;;;;4931725;29;20048;-78
2023/01/05 14:55:37;;;;;;;0.50;0.50;;;13.00;99.90;;;;;;4932918;29;20043;-78
2023/01/05 14:58:35;;;;;;;1.30;0.93;;;13.00;99.90;;;;;;4924166;29;20060;-79
2023/01/05 15:01:17;;;;;;;1.52;0.98;;;13.00;99.90;;;;;;4920395;29;20116;-78
2023/01/05 15:03:56;;;;;;;1.55;0.68;;;13.00;99.90;;;;;;4921102;29;20055;-78
2023/01/05 15:06:34;;;;;;;2.30;0.65;;;13.00;99.90;;;;;;4921960;29;20048;-78
2023/01/05 15:09:35;;;;;;;0.52;0.52;;;13.00;99.90;;;;;;4934623;29;20103;-78
2023/01/05 15:12:34;;;;;;;2.85;0.70;;;12.90;99.90;;;;;;4933143;29;20048;-78
2023/01/05 15:15:29;;;;;;;0.95;0.50;;;12.90;99.90;;;;;;4935269;29;20107;-77
2023/01/05 15:18:01;;;;;;;0.45;0.40;;;12.90;99.90;;;;;;4934020;29;20052;-78
2023/01/05 15:21:09;;;;;;;4.57;0.40;;;12.90;99.90;;;;;;4935629;29;20051;-77
2023/01/05 15:24:16;;;;;;;1.13;0.60;;;12.90;99.90;;;;;;4925340;29;20138;-77
2023/01/05 15:26:52;;;;;;;1.50;0.63;;;12.90;99.90;;;;;;4921516;29;20414;-79
2023/01/05 15:29:52;;;;;;;1.27;0.65;;;12.90;99.90;;;;;;4934248;29;20070;-78
2023/01/05 15:32:23;;;;;;;;;;;12.80;99.90;;;;;;4923903;29;20048;-78
2023/01/05 15:34:55;;;;;;;;;;;12.80;99.90;;;;;;4924674;29;19933;-78
2023/01/05 15:37:31;;;;;;;0.60;0.60;;;12.80;99.90;;;;;;4931364;29;20398;-77
2023/01/05 15:40:03;;;;;;;0.93;0.80;;;12.70;99.90;;;;;;4927586;29;20051;-79
2023/01/05 15:42:39;;;;;;;1.20;0.70;;;12.70;99.90;;;;;;4936533;29;20048;-78
2023/01/05 15:45:21;;;;;;;0.98;0.68;;;12.70;99.90;;;;;;4932430;29;20067;-78
2023/01/05 15:47:48;;;;;;;1.10;0.90;;;12.70;99.90;;;;;;4923126;29;20048;-78
2023/01/05 15:50:25;;;;;;;2.83;1.00;;;12.70;99.90;;;;;;4935757;29;20055;-79
2023/01/05 15:52:55;;;;;;;1.38;0.77;;;12.60;99.90;;;;;;4937187;29;20059;-78
2023/01/05 15:55:22;;;;;;;1.45;0.90;;;12.60;99.90;;;;;;4937169;29;20525;-78
2023/01/05 15:57:56;;;;;;;1.58;0.80;;;12.60;99.90;;;;;;4922623;29;20056;-78
2023/01/05 16:00:32;;;;;;;1.42;0.82;;;12.50;99.90;;;;;;4923851;29;20052;-78
2023/01/05 16:02:59;;;;;;;0.85;0.80;;;12.50;99.90;;;;;;4931995;29;20056;-78
2023/01/05 16:05:34;;;;;;;1.65;0.90;;;12.50;99.90;;;;;;4929953;29;20528;-78
2023/01/05 16:08:11;;;;;;;2.03;1.00;;;12.50;99.90;;;;;;4934189;29;20052;-77
2023/01/05 16:10:43;;;;;;;2.00;1.10;;;12.40;99.90;;;;;;4931235;29;20051;-79
2023/01/05 16:13:16;;;;;;;2.70;1.00;;;12.40;99.90;;;;;;4922319;29;20052;-78
2023/01/05 16:15:50;;;;;;;1.33;0.88;;;12.40;99.90;;;;;;4921855;29;20052;-77
2023/01/05 16:18:25;;;;;;;1.90;0.90;;;12.40;99.90;;;;;;4919707;29;20056;-78
2023/01/05 16:20:54;;;;;;;3.42;1.23;;;12.40;99.90;;;;;;4936914;29;20075;-79
2023/01/05 16:23:56;;;;;;;1.30;0.80;;;12.40;99.90;;;;;;4922622;29;20141;-78
2023/01/05 16:26:23;;;;;;;0.90;0.70;;;12.40;99.90;;;;;;4911295;29;20052;-78
2023/01/05 16:28:50;;;;;;;1.85;0.90;;;12.30;99.90;;;;;;4927096;29;20044;-78
2023/01/05 16:31:32;;;;;;;2.05;1.00;;;12.30;99.90;;;;;;4927770;29;20103;-78
2023/01/05 16:34:15;;;;;;;1.75;1.27;;;12.30;99.90;;;;;;4926748;29;20055;-78
2023/01/05 16:37:02;;;;;;;2.97;0.98;;;12.30;99.90;;;;;;4931390;29;20464;-77
2023/01/05 16:39:40;;;;;;;2.15;0.88;;;12.30;99.90;;;;;;4933790;29;20054;-78
2023/01/05 16:42:30;;;;;;;2.85;0.98;;;12.30;99.90;;;;;;4935916;29;20047;-77
2023/01/05 16:44:58;;;;;;;;;;;12.30;99.90;;;;;;4938346;29;20052;-78
2023/01/05 16:47:39;;;;;;;5.25;2.08;;;12.30;99.90;;;;;;4936172;29;19922;-78
2023/01/05 16:50:18;;;;;;;1.33;1.00;;;12.30;99.90;;;;;;4934146;29;20822;-78
2023/01/05 16:52:56;;;;;;;3.83;1.10;;;12.30;99.90;;;;;;4936140;29;20091;-78
2023/01/05 16:55:29;;;;;;;1.02;0.90;;;12.20;99.90;;;;;;4933339;29;20044;-78
2023/01/05 16:57:57;;;;;;;1.48;1.00;;;12.30;99.90;;;;;;4929722;29;20048;-78
2023/01/05 17:00:27;;;;;;;7.55;3.55;;;12.20;99.90;;;;;;4933696;29;20071;-78
2023/01/05 17:02:55;;;;;;;1.30;1.17;;;12.20;99.90;;;;;;4936238;29;20071;-78
2023/01/05 17:05:24;;;;;;;1.80;1.00;;;12.20;99.90;;;;;;4938911;29;20052;-77
2023/01/05 17:08:05;;;;;;;1.50;0.75;;;12.20;99.90;;;;;;4939300;29;20059;-81
2023/01/05 17:10:32;;;;;;;2.97;1.05;;;12.20;99.90;;;;;;4941129;29;20103;-78
2023/01/05 17:13:30;;;;;;;4.00;1.10;;;12.10;99.90;;;;;;4940082;29;20044;-78
2023/01/05 17:15:57;;;;;;;1.95;1.23;;;12.10;99.90;;;;;;4936322;29;20402;-78
2023/01/05 17:18:26;;;;;;;2.58;1.20;;;12.10;99.90;;;;;;4936113;29;20055;-78
2023/01/05 17:20:55;;;;;;;2.30;1.50;;;12.10;99.90;;;;;;4928057;29;20055;-79
2023/01/05 17:23:28;;;;;;;2.85;1.40;;;12.10;99.90;;;;;;4934268;29;20533;-78
2023/01/05 17:25:58;;;;;;;6.80;3.35;;;12.10;99.90;;;;;;4933831;29;20466;-78
2023/01/05 17:28:25;;;;;;;6.55;3.30;;;12.10;99.90;;;;;;4929598;29;20079;-78
2023/01/05 17:30:52;;;;;;;7.05;2.17;;;12.10;99.90;;;;;;4925417;29;20084;-78
2023/01/05 17:33:19;;;;;;;3.58;2.35;;;12.10;99.90;;;;;;4925358;29;20048;-78
2023/01/05 17:35:47;;;;;;;6.35;2.20;;;12.10;99.90;;;;;;4927096;29;20055;-78
2023/01/05 17:38:19;;;;;;;4.90;1.83;;;12.10;99.90;;;;;;4940113;29;20048;-78
2023/01/05 17:40:45;;;;;;;6.20;2.20;;;12.10;99.90;;;;;;4937424;29;20059;-78
2023/01/05 17:43:12;;;;;;;20.80;8.50;;;12.10;99.90;;;;;;4934259;29;20052;-79
2023/01/05 17:45:42;;;;;;;8.32;2.88;;;12.10;99.90;;;;;;4930570;29;20063;-78
2023/01/05 17:48:10;;;;;;;4.07;1.55;;;12.10;99.90;;;;;;4930002;29;20047;-78
2023/01/05 17:50:37;;;;;;;2.28;1.50;;;12.10;99.90;;;;;;4929634;29;20052;-78
2023/01/05 17:53:04;;;;;;;9.02;3.95;;;12.10;99.90;;;;;;4927507;29;20497;-77
2023/01/05 17:55:31;;;;;;;9.80;3.35;;;12.10;99.90;;;;;;4926550;29;20442;-78
2023/01/05 17:57:58;;;;;;;27.05;10.70;;;12.10;99.90;;;;;;4937022;29;20056;-78
2023/01/05 18:00:28;;;;;;;12.10;4.28;;;12.10;99.90;;;;;;4921484;29;20143;-78
2023/01/05 18:02:55;;;;;;;3.70;2.22;;;12.10;99.90;;;;;;4938213;29;20061;-78
2023/01/05 18:05:22;;;;;;;1.70;1.00;;;12.10;99.90;;;;;;4937925;29;20047;-78
2023/01/05 18:07:49;;;;;;;2.47;1.10;;;12.10;99.90;;;;;;4934974;29;20055;-78
2023/01/05 18:10:19;;;;;;;1.48;1.10;;;12.10;99.90;;;;;;4932677;29;20044;-78
2023/01/05 18:12:46;;;;;;;3.30;1.20;;;12.10;99.90;;;;;;4932562;29;20048;-78
2023/01/05 18:15:14;;;;;;;2.65;1.20;;;12.10;99.90;;;;;;4930178;29;20048;-78
2023/01/05 18:17:41;;;;;;;2.33;1.20;;;12.10;99.90;;;;;;4928552;29;20079;-79
2023/01/05 18:20:11;;;;;;;1.75;1.15;;;12.10;99.90;;;;;;4927267;29;20062;-78
2023/01/05 18:22:38;;;;;;;4.75;2.13;;;12.10;99.90;;;;;;4921866;29;20510;-78
2023/01/05 18:25:05;;;;;;;4.82;1.42;;;12.10;99.90;;;;;;4922048;29;20060;-78
2023/01/05 18:27:37;;;;;;;4.47;1.40;;;12.10;99.90;;;;;;4936350;29;20121;-78
2023/01/05 18:30:05;;;;;;;2.78;1.13;;;12.10;99.90;;;;;;4921309;29;20055;-79
2023/01/05 18:32:32;;;;;;;3.85;1.35;;;12.10;99.90;;;;;;4922781;29;20074;-78
2023/01/05 18:34:59;;;;;;;5.18;1.38;;;12.00;99.90;;;;;;4930486;29;20449;-78
2023/01/05 18:37:31;;;;;;;4.10;0.93;;;12.00;99.90;;;;;;4937982;29;20555;-77
2023/01/05 18:39:58;;;;;;;3.83;1.08;;;12.00;99.90;;;;;;4935552;29;20066;-78
2023/01/05 18:42:25;;;;;;;4.72;2.60;;;12.00;99.90;;;;;;4936042;29;20052;-77
2023/01/05 18:44:52;;;;;;;2.78;1.85;;;12.10;99.90;;;;;;4930243;29;20052;-78
2023/01/05 18:47:18;;;;;;;6.95;3.58;;;12.00;99.90;;;;;;4929041;29;20059;-77
2023/01/05 18:49:45;;;;;;;10.60;5.15;;;12.00;99.90;;;;;;4926605;29;20062;-76
2023/01/05 18:52:12;;;;;;;7.57;3.55;;;12.00;99.90;;;;;;4925378;29;20044;-76
2023/01/05 18:54:38;;;;;;;4.55;2.40;;;12.00;99.90;;;;;;4924814;29;20449;-78
2023/01/05 18:57:05;;;;;;;4.53;1.35;;;12.00;99.90;;;;;;4936249;29;20063;-78
2023/01/05 18:59:32;;;;;;;2.58;1.25;;;12.00;99.90;;;;;;4936985;29;20412;-78
2023/01/05 19:01:58;;;;;;;3.22;1.70;;;12.00;99.90;;;;;;4929042;29;20052;-78
2023/01/05 19:04:26;;;;;;;3.50;1.25;;;12.00;99.90;;;;;;4930613;29;20052;-78
2023/01/05 19:06:53;;;;;;;2.25;1.10;;;12.00;99.90;;;;;;4932258;29;22305;-77
2023/01/05 19:09:19;;;;;;;8.30;1.33;;;12.00;99.90;;;;;;4930313;29;20044;-78
2023/01/05 19:11:47;;;;;;;4.30;1.38;;;12.00;99.90;;;;;;4934539;29;20071;-78
2023/01/05 19:14:14;;;;;;;5.38;1.23;;;12.00;99.90;;;;;;4929303;29;20051;-79
2023/01/05 19:16:41;;;;;;;3.55;1.10;;;12.00;99.90;;;;;;4931721;29;20048;-80
2023/01/05 19:19:11;;;;;;;5.10;1.40;;;12.00;99.90;;;;;;4931927;29;20056;-79
2023/01/05 19:21:39;;;;;;;6.10;1.73;;;12.00;99.90;;;;;;4940174;29;20048;-80
2023/01/05 19:24:11;;;;;;;3.08;1.50;;;12.00;99.90;;;;;;4937565;29;20062;-80
2023/01/05 19:26:37;;;;;;;3.60;1.88;;;12.00;99.90;;;;;;4931730;29;20051;-80
2023/01/05 19:29:07;;;;;;;4.90;1.83;;;12.00;99.90;;;;;;4934311;29;20493;-80
2023/01/05 19:31:34;;;;;;;6.90;3.25;;;12.00;99.90;;;;;;4939190;29;20070;-80
2023/01/05 19:34:01;;;;;;;4.32;2.38;;;12.00;99.90;;;;;;4935521;29;20044;-79
2023/01/05 19:36:31;;;;;;;5.18;1.98;;;11.90;99.90;;;;;;4935146;29;20040;-80
2023/01/05 19:39:03;;;;;;;2.88;1.73;;;11.90;99.90;;;;;;4932991;29;20059;-80
2023/01/05 19:41:30;;;;;;;5.93;2.10;;;11.90;99.90;;;;;;4929716;29;20499;-79
2023/01/05 19:43:57;;;;;;;4.88;2.20;;;11.90;99.90;;;;;;4936592;29;20059;-80
2023/01/05 19:46:26;;;;;;;3.33;1.67;;;11.90;99.90;;;;;;4937376;29;20047;-79
2023/01/05 19:48:53;;;;;;;4.05;2.03;;;11.80;99.90;;;;;;4939041;29;20505;-80
2023/01/05 19:51:25;;;;;;;3.60;1.60;;;11.80;99.90;;;;;;4936893;29;20054;-80
2023/01/05 19:53:58;;;;;;;5.68;1.90;;;11.80;99.90;;;;;;4938429;29;20047;-79
2023/01/05 19:56:28;;;;;;;3.42;1.95;;;11.80;99.90;;;;;;4937765;29;20048;-79
2023/01/05 19:58:58;;;;;;;3.38;1.92;;;11.70;99.90;;;;;;4937003;29;20529;-79
2023/01/05 20:01:27;;;;;;;3.45;1.85;;;11.70;99.90;;;;;;4932462;29;20055;-80
2023/01/05 20:03:55;;;;;;;4.07;1.23;;;11.70;99.90;;;;;;4937423;29;20070;-79
2023/01/05 20:06:33;;;;;;;2.60;1.27;;;11.70;99.90;;;;;;4931988;29;20054;-79
2023/01/05 20:09:03;;;;;;;4.93;1.40;;;11.70;99.90;;;;;;4930575;29;20052;-79
2023/01/05 20:11:38;;;;;;;1.95;1.50;;;11.70;99.90;;;;;;4938721;29;20415;-79
2023/01/05 20:14:13;;;;;;;2.88;0.98;;;11.70;99.90;;;;;;4928867;29;20338;-80
2023/01/05 20:16:42;;;;;;;2.45;0.93;;;11.70;99.90;;;;;;4935214;29;20054;-80
2023/01/05 20:19:10;;;;;;;2.35;1.20;;;11.60;99.90;;;;;;4940584;29;20139;-80
2023/01/05 20:21:37;;;;;;;4.13;1.55;;;11.60;99.90;;;;;;4936659;29;20047;-80
2023/01/05 20:24:09;;;;;;;2.75;1.58;;;11.70;99.90;;;;;;4932764;29;20063;-80
2023/01/05 20:26:36;;;;;;;4.10;1.80;;;11.70;99.90;;;;;;4935734;29;20048;-80
2023/01/05 20:29:03;;;;;;;5.70;2.10;;;11.60;99.90;;;;;;4934993;29;20409;-80
2023/01/05 20:31:33;;;;;;;3.90;1.98;;;11.70;99.90;;;;;;4932361;29;20049;-80
2023/01/05 20:34:14;;;;;;;4.88;2.97;;;11.60;99.90;;;;;;4929783;29;20083;-79
2023/01/05 20:36:41;;;;;;;5.75;2.95;;;11.70;99.90;;;;;;4938678;29;20043;-79
2023/01/05 20:39:10;;;;;;;8.13;5.10;;;11.60;99.90;;;;;;4934179;29;20119;-79
2023/01/05 20:41:40;;;;;;;11.15;4.30;;;11.70;99.90;;;;;;4935228;29;20063;-79
2023/01/05 20:44:08;;;;;;;11.30;6.07;;;11.70;99.90;;;;;;4938206;29;20064;-81
2023/01/05 20:46:38;;;;;;;13.20;6.55;;;11.60;99.90;;;;;;4933375;29;20316;-79
2023/01/05 20:49:05;;;;;;;11.80;6.10;;;11.70;99.90;;;;;;4931053;29;20047;-78
2023/01/05 20:51:32;;;;;;;11.30;6.03;;;11.70;99.90;;;;;;4932870;29;20043;-78
2023/01/05 20:54:01;;;;;;;8.35;4.80;;;11.60;99.90;;;;;;4933197;29;20572;-79
2023/01/05 20:56:37;;;;;;;9.10;4.75;;;11.60;99.90;;;;;;4933864;29;20047;-79
2023/01/05 20:59:11;;;;;;;8.55;4.05;;;11.60;99.90;;;;;;4935109;29;20052;-79
2023/01/05 21:01:38;;;;;;;7.03;3.10;;;11.60;99.90;;;;;;4933534;29;20072;-78
2023/01/05 21:04:05;;;;;;;5.28;2.95;;;11.60;99.90;;;;;;4931431;29;20052;-79
2023/01/05 21:06:33;;;;;;;6.35;3.67;;;11.60;99.90;;;;;;4927879;29;20429;-80
2023/01/05 21:09:00;;;;;;;5.55;3.83;;;11.60;99.90;;;;;;4934569;29;20059;-80
2023/01/05 21:11:28;;;;;;;5.82;3.30;;;11.60;99.90;;;;;;4931157;29;20524;-80
2023/01/05 21:13:56;;;;;;;5.78;3.50;;;11.60;99.90;;;;;;4931694;28;20090;-80
2023/01/05 21:16:25;;;;;;;5.97;3.30;;;11.60;99.90;;;;;;4933131;29;20055;-80
2023/01/05 21:18:53;;;;;;;5.03;1.90;;;11.60;99.90;;;;;;4932934;29;20341;-79
2023/01/05 21:21:22;;;;;;;3.40;2.30;;;11.60;99.90;;;;;;4931033;29;20448;-79
2023/01/05 21:23:50;;;;;;;3.17;1.83;;;11.50;99.90;;;;;;4933997;29;20090;-80
2023/01/05 21:26:18;;;;;;;2.72;1.60;;;11.50;99.90;;;;;;4923771;29;20063;-80
2023/01/05 21:28:45;;;;;;;4.10;1.70;;;11.50;99.90;;;;;;4929885;29;20055;-80
2023/01/05 21:31:17;;;;;;;4.93;1.10;;;11.50;99.90;;;;;;4936744;29;20052;-79
2023/01/05 21:33:45;;;;;;;3.40;1.45;;;11.50;99.90;;;;;;4935026;29;20048;-79
2023/01/05 21:36:19;;;;;;;3.28;2.28;;;11.50;99.90;;;;;;4931130;29;20052;-80
2023/01/05 21:38:58;;;;;;;5.57;2.50;;;11.50;99.90;;;;;;4930583;29;20060;-80
2023/01/05 21:44:16;;;;;;;4.47;1.88;;;11.50;99.90;;;;;;4929678;29;20068;-78